sensor_id;sensor_type;location;lat;lon;timestamp;P1;durP1;ratioP1;P2;durP2;ratioP2
13204;SDS011;6667;52.634;9.226;2023-05-21T08:26:48;13.20;;;9.52;;
13204;SDS011;6667;52.634;9.226;2023-05-21T08:29:15;13.20;;;10.40;;
13204;SDS011;6667;52.634;9.226;2023-05-21T08:31:42;12.00;;;9.90;;
13204;SDS011;6667;52.634;9.226;2023-05-21T08:34:09;17.25;;;10.68;;
13204;SDS011;6667;52.634;9.226;2023-05-21T08:36:37;11.70;;;9.20;;
13204;SDS011;6667;52.634;9.226;2023-05-21T08:39:07;11.38;;;9.00;;
13204;SDS011;6667;52.634;9.226;2023-05-21T08:41:40;13.93;;;9.73;;
13204;SDS011;6667;52.634;9.226;2023-05-21T08:44:36;12.20;;;9.43;;
13204;SDS011;6667;52.634;9.226;2023-05-21T08:47:14;12.90;;;9.07;;
13204;SDS011;6667;52.634;9.226;2023-05-21T08:49:44;14.32;;;9.82;;
13204;SDS011;6667;52.634;9.226;2023-05-21T08:52:13;15.23;;;10.32;;
13204;SDS011;6667;52.634;9.226;2023-05-21T08:54:41;13.20;;;9.85;;
13204;SDS011;6667;52.634;9.226;2023-05-21T08:57:09;15.73;;;10.57;;
13204;SDS011;6667;52.634;9.226;2023-05-21T08:59:39;13.65;;;9.65;;
13204;SDS011;6667;52.634;9.226;2023-05-21T09:04:46;13.00;;;10.05;;
13204;SDS011;6667;52.634;9.226;2023-05-21T09:10:50;16.90;;;11.10;;
13204;SDS011;6667;52.634;9.226;2023-05-21T09:13:18;14.00;;;11.40;;
13204;SDS011;6667;52.634;9.226;2023-05-21T09:15:47;14.25;;;10.05;;
13204;SDS011;6667;52.634;9.226;2023-05-21T09:18:15;12.05;;;9.13;;
13204;SDS011;6667;52.634;9.226;2023-05-21T09:20:42;12.02;;;10.70;;
13204;SDS011;6667;52.634;9.226;2023-05-21T09:23:09;12.25;;;10.40;;
13204;SDS011;6667;52.634;9.226;2023-05-21T09:31:40;13.13;;;10.43;;
13204;SDS011;6667;52.634;9.226;2023-05-21T09:34:11;11.90;;;10.38;;
13204;SDS011;6667;52.634;9.226;2023-05-21T09:36:58;11.43;;;9.73;;
13204;SDS011;6667;52.634;9.226;2023-05-21T09:39:28;10.98;;;8.93;;
13204;SDS011;6667;52.634;9.226;2023-05-21T09:41:55;14.77;;;10.20;;
13204;SDS011;6667;52.634;9.226;2023-05-21T09:44:23;13.40;;;9.90;;
13204;SDS011;6667;52.634;9.226;2023-05-21T09:46:55;13.07;;;9.88;;
13204;SDS011;6667;52.634;9.226;2023-05-21T09:49:23;13.65;;;10.15;;
13204;SDS011;6667;52.634;9.226;2023-05-21T09:51:53;14.20;;;10.35;;
13204;SDS011;6667;52.634;9.226;2023-05-21T09:54:23;14.40;;;10.40;;
13204;SDS011;6667;52.634;9.226;2023-05-21T09:56:51;15.95;;;10.85;;
13204;SDS011;6667;52.634;9.226;2023-05-21T09:59:18;12.82;;;10.02;;
13204;SDS011;6667;52.634;9.226;2023-05-21T10:01:49;11.70;;;9.50;;
13204;SDS011;6667;52.634;9.226;2023-05-21T10:18:32;12.02;;;9.73;;
13204;SDS011;6667;52.634;9.226;2023-05-21T10:35:24;11.88;;;9.93;;
13204;SDS011;6667;52.634;9.226;2023-05-21T10:44:57;13.48;;;10.25;;
13204;SDS011;6667;52.634;9.226;2023-05-21T10:58:34;15.15;;;9.60;;
13204;SDS011;6667;52.634;9.226;2023-05-21T11:01:44;12.40;;;10.32;;
13204;SDS011;6667;52.634;9.226;2023-05-21T11:18:26;12.40;;;9.88;;
13204;SDS011;6667;52.634;9.226;2023-05-21T12:02:44;9.32;;;8.40;;
13204;SDS011;6667;52.634;9.226;2023-05-21T12:05:13;10.60;;;8.65;;
13204;SDS011;6667;52.634;9.226;2023-05-21T12:07:53;9.90;;;8.73;;
13204;SDS011;6667;52.634;9.226;2023-05-21T12:10:22;9.68;;;8.40;;
13204;SDS011;6667;52.634;9.226;2023-05-21T12:12:49;9.70;;;8.15;;
13204;SDS011;6667;52.634;9.226;2023-05-21T12:15:16;11.48;;;8.68;;
13204;SDS011;6667;52.634;9.226;2023-05-21T12:17:50;10.25;;;8.38;;
13204;SDS011;6667;52.634;9.226;2023-05-21T12:30:46;10.13;;;9.07;;
13204;SDS011;6667;52.634;9.226;2023-05-21T12:33:31;10.45;;;9.02;;
13204;SDS011;6667;52.634;9.226;2023-05-21T12:46:38;8.48;;;7.63;;
13204;SDS011;6667;52.634;9.226;2023-05-21T12:49:08;8.98;;;8.00;;
13204;SDS011;6667;52.634;9.226;2023-05-21T12:52:03;9.63;;;8.05;;
13204;SDS011;6667;52.634;9.226;2023-05-21T12:54:32;11.07;;;7.95;;
13204;SDS011;6667;52.634;9.226;2023-05-21T12:57:06;10.57;;;8.25;;
13204;SDS011;6667;52.634;9.226;2023-05-21T12:59:46;8.32;;;7.45;;
13204;SDS011;6667;52.634;9.226;2023-05-21T13:02:15;8.98;;;7.85;;
13204;SDS011;6667;52.634;9.226;2023-05-21T13:04:46;10.35;;;8.20;;
13204;SDS011;6667;52.634;9.226;2023-05-21T13:07:13;8.63;;;7.82;;
13204;SDS011;6667;52.634;9.226;2023-05-21T13:09:41;9.23;;;8.32;;
13204;SDS011;6667;52.634;9.226;2023-05-21T13:12:07;8.50;;;7.70;;
13204;SDS011;6667;52.634;9.226;2023-05-21T13:14:34;8.45;;;7.57;;
13204;SDS011;6667;52.634;9.226;2023-05-21T13:17:01;8.52;;;7.43;;
13204;SDS011;6667;52.634;9.226;2023-05-21T13:19:27;8.75;;;7.30;;
13204;SDS011;6667;52.634;9.226;2023-05-21T13:21:55;9.10;;;7.60;;
13204;SDS011;6667;52.634;9.226;2023-05-21T13:24:22;8.48;;;7.32;;
13204;SDS011;6667;52.634;9.226;2023-05-21T13:26:49;9.27;;;7.35;;
13204;SDS011;6667;52.634;9.226;2023-05-21T13:29:15;8.63;;;7.72;;
13204;SDS011;6667;52.634;9.226;2023-05-21T13:31:42;8.38;;;7.47;;
13204;SDS011;6667;52.634;9.226;2023-05-21T13:34:09;8.25;;;7.05;;
13204;SDS011;6667;52.634;9.226;2023-05-21T13:36:36;8.93;;;7.50;;
13204;SDS011;6667;52.634;9.226;2023-05-21T13:39:05;9.30;;;7.47;;
13204;SDS011;6667;52.634;9.226;2023-05-21T13:41:31;9.20;;;6.90;;
13204;SDS011;6667;52.634;9.226;2023-05-21T13:43:58;9.30;;;6.97;;
13204;SDS011;6667;52.634;9.226;2023-05-21T13:46:25;8.05;;;7.25;;
13204;SDS011;6667;52.634;9.226;2023-05-21T13:48:52;9.18;;;7.82;;
13204;SDS011;6667;52.634;9.226;2023-05-21T13:51:18;11.73;;;7.63;;
13204;SDS011;6667;52.634;9.226;2023-05-21T13:53:45;7.88;;;7.03;;
13204;SDS011;6667;52.634;9.226;2023-05-21T13:56:13;8.55;;;6.88;;
13204;SDS011;6667;52.634;9.226;2023-05-21T13:58:40;12.90;;;7.63;;
13204;SDS011;6667;52.634;9.226;2023-05-21T14:01:06;7.85;;;7.05;;
13204;SDS011;6667;52.634;9.226;2023-05-21T14:03:33;9.07;;;7.25;;
13204;SDS011;6667;52.634;9.226;2023-05-21T14:06:00;7.70;;;7.00;;
13204;SDS011;6667;52.634;9.226;2023-05-21T14:08:26;9.95;;;6.80;;
13204;SDS011;6667;52.634;9.226;2023-05-21T14:10:53;9.75;;;7.30;;
13204;SDS011;6667;52.634;9.226;2023-05-21T14:13:22;9.05;;;7.15;;
13204;SDS011;6667;52.634;9.226;2023-05-21T14:15:50;7.90;;;6.82;;
13204;SDS011;6667;52.634;9.226;2023-05-21T14:18:16;7.85;;;7.05;;
13204;SDS011;6667;52.634;9.226;2023-05-21T14:20:43;8.75;;;7.50;;
13204;SDS011;6667;52.634;9.226;2023-05-21T14:23:10;8.65;;;7.43;;
13204;SDS011;6667;52.634;9.226;2023-05-21T14:25:37;8.30;;;7.47;;
13204;SDS011;6667;52.634;9.226;2023-05-21T14:28:03;9.80;;;8.15;;
13204;SDS011;6667;52.634;9.226;2023-05-21T14:30:32;7.78;;;6.97;;
13204;SDS011;6667;52.634;9.226;2023-05-21T14:32:59;10.48;;;8.07;;
13204;SDS011;6667;52.634;9.226;2023-05-21T14:35:25;9.18;;;8.05;;
13204;SDS011;6667;52.634;9.226;2023-05-21T14:37:52;9.68;;;8.57;;
13204;SDS011;6667;52.634;9.226;2023-05-21T14:40:19;11.82;;;8.20;;
13204;SDS011;6667;52.634;9.226;2023-05-21T14:42:46;11.27;;;8.55;;
13204;SDS011;6667;52.634;9.226;2023-05-21T14:45:12;11.70;;;8.68;;
13204;SDS011;6667;52.634;9.226;2023-05-21T14:47:40;9.73;;;8.40;;
13204;SDS011;6667;52.634;9.226;2023-05-21T14:50:07;10.23;;;8.90;;
13204;SDS011;6667;52.634;9.226;2023-05-21T14:52:34;8.95;;;7.97;;
13204;SDS011;6667;52.634;9.226;2023-05-21T14:55:01;10.48;;;8.55;;
13204;SDS011;6667;52.634;9.226;2023-05-21T14:57:27;10.98;;;8.52;;
13204;SDS011;6667;52.634;9.226;2023-05-21T14:59:54;13.90;;;8.38;;
13204;SDS011;6667;52.634;9.226;2023-05-21T15:02:21;9.68;;;8.57;;
13204;SDS011;6667;52.634;9.226;2023-05-21T15:04:49;11.27;;;8.45;;
13204;SDS011;6667;52.634;9.226;2023-05-21T15:07:16;9.88;;;8.98;;
13204;SDS011;6667;52.634;9.226;2023-05-21T15:09:42;9.88;;;8.88;;
13204;SDS011;6667;52.634;9.226;2023-05-21T15:12:09;9.63;;;8.63;;
13204;SDS011;6667;52.634;9.226;2023-05-21T15:14:36;10.55;;;9.20;;
13204;SDS011;6667;52.634;9.226;2023-05-21T15:17:03;9.90;;;8.90;;
13204;SDS011;6667;52.634;9.226;2023-05-21T15:19:30;10.55;;;9.43;;
13204;SDS011;6667;52.634;9.226;2023-05-21T15:21:58;10.43;;;9.05;;
13204;SDS011;6667;52.634;9.226;2023-05-21T15:24:24;10.48;;;9.20;;
13204;SDS011;6667;52.634;9.226;2023-05-21T15:26:51;12.13;;;9.25;;
13204;SDS011;6667;52.634;9.226;2023-05-21T15:29:17;10.88;;;9.35;;
13204;SDS011;6667;52.634;9.226;2023-05-21T15:31:44;12.10;;;9.95;;
13204;SDS011;6667;52.634;9.226;2023-05-21T15:34:10;10.85;;;8.95;;
13204;SDS011;6667;52.634;9.226;2023-05-21T15:36:37;11.80;;;9.63;;
13204;SDS011;6667;52.634;9.226;2023-05-21T15:39:05;12.95;;;9.20;;
13204;SDS011;6667;52.634;9.226;2023-05-21T15:41:33;14.02;;;8.95;;
13204;SDS011;6667;52.634;9.226;2023-05-21T15:44:01;10.00;;;8.73;;
13204;SDS011;6667;52.634;9.226;2023-05-21T15:46:27;9.82;;;8.82;;
13204;SDS011;6667;52.634;9.226;2023-05-21T15:48:54;10.13;;;9.13;;
13204;SDS011;6667;52.634;9.226;2023-05-21T15:51:21;11.93;;;9.77;;
13204;SDS011;6667;52.634;9.226;2023-05-21T15:53:47;10.48;;;9.45;;
13204;SDS011;6667;52.634;9.226;2023-05-21T15:56:15;10.18;;;9.10;;
13204;SDS011;6667;52.634;9.226;2023-05-21T15:58:42;10.57;;;9.48;;
13204;SDS011;6667;52.634;9.226;2023-05-21T16:01:08;12.73;;;9.95;;
13204;SDS011;6667;52.634;9.226;2023-05-21T16:03:35;10.00;;;9.00;;
13204;SDS011;6667;52.634;9.226;2023-05-21T16:06:02;10.68;;;9.57;;
13204;SDS011;6667;52.634;9.226;2023-05-21T16:08:30;12.20;;;9.75;;
13204;SDS011;6667;52.634;9.226;2023-05-21T16:10:56;9.88;;;8.88;;
13204;SDS011;6667;52.634;9.226;2023-05-21T16:13:24;10.93;;;9.85;;
13204;SDS011;6667;52.634;9.226;2023-05-21T16:15:51;11.40;;;9.60;;
13204;SDS011;6667;52.634;9.226;2023-05-21T16:18:18;11.40;;;10.25;;
13204;SDS011;6667;52.634;9.226;2023-05-21T16:20:45;11.90;;;9.88;;
13204;SDS011;6667;52.634;9.226;2023-05-21T16:23:12;11.35;;;9.27;;
13204;SDS011;6667;52.634;9.226;2023-05-21T16:25:38;12.65;;;9.95;;
13204;SDS011;6667;52.634;9.226;2023-05-21T16:28:05;12.02;;;9.63;;
13204;SDS011;6667;52.634;9.226;2023-05-21T16:30:33;10.63;;;9.20;;
13204;SDS011;6667;52.634;9.226;2023-05-21T16:33:00;11.23;;;9.68;;
13204;SDS011;6667;52.634;9.226;2023-05-21T16:35:27;11.20;;;9.77;;
13204;SDS011;6667;52.634;9.226;2023-05-21T16:37:55;12.32;;;10.48;;
13204;SDS011;6667;52.634;9.226;2023-05-21T16:40:21;11.20;;;10.10;;
13204;SDS011;6667;52.634;9.226;2023-05-21T16:42:48;12.20;;;9.98;;
13204;SDS011;6667;52.634;9.226;2023-05-21T16:45:15;10.98;;;9.82;;
13204;SDS011;6667;52.634;9.226;2023-05-21T16:47:47;11.82;;;9.52;;
13204;SDS011;6667;52.634;9.226;2023-05-21T16:50:13;12.55;;;9.73;;
13204;SDS011;6667;52.634;9.226;2023-05-21T16:52:40;12.30;;;9.88;;
13204;SDS011;6667;52.634;9.226;2023-05-21T16:55:07;10.95;;;9.80;;
13204;SDS011;6667;52.634;9.226;2023-05-21T16:57:34;10.65;;;9.55;;
13204;SDS011;6667;52.634;9.226;2023-05-21T17:00:01;10.73;;;9.63;;
13204;SDS011;6667;52.634;9.226;2023-05-21T17:02:28;12.52;;;10.45;;
13204;SDS011;6667;52.634;9.226;2023-05-21T17:04:56;12.27;;;9.35;;
13204;SDS011;6667;52.634;9.226;2023-05-21T17:07:24;11.52;;;9.35;;
13204;SDS011;6667;52.634;9.226;2023-05-21T17:09:51;14.18;;;9.57;;
13204;SDS011;6667;52.634;9.226;2023-05-21T17:12:17;11.70;;;10.50;;
13204;SDS011;6667;52.634;9.226;2023-05-21T17:14:44;11.40;;;10.18;;
13204;SDS011;6667;52.634;9.226;2023-05-21T17:17:11;10.30;;;9.30;;
13204;SDS011;6667;52.634;9.226;2023-05-21T17:19:37;11.52;;;10.02;;
13204;SDS011;6667;52.634;9.226;2023-05-21T17:22:05;11.35;;;9.93;;
13204;SDS011;6667;52.634;9.226;2023-05-21T17:24:32;11.10;;;9.95;;
13204;SDS011;6667;52.634;9.226;2023-05-21T17:26:58;11.48;;;10.25;;
13204;SDS011;6667;52.634;9.226;2023-05-21T17:29:25;15.18;;;9.75;;
13204;SDS011;6667;52.634;9.226;2023-05-21T17:31:52;11.57;;;10.32;;
13204;SDS011;6667;52.634;9.226;2023-05-21T17:34:18;14.07;;;11.32;;
13204;SDS011;6667;52.634;9.226;2023-05-21T17:36:45;12.82;;;9.70;;
13204;SDS011;6667;52.634;9.226;2023-05-21T17:39:13;12.48;;;11.15;;
13204;SDS011;6667;52.634;9.226;2023-05-21T17:41:40;14.38;;;11.25;;
13204;SDS011;6667;52.634;9.226;2023-05-21T17:44:06;14.85;;;11.98;;
13204;SDS011;6667;52.634;9.226;2023-05-21T17:46:35;12.60;;;10.65;;
13204;SDS011;6667;52.634;9.226;2023-05-21T17:49:01;12.32;;;10.63;;
13204;SDS011;6667;52.634;9.226;2023-05-21T17:51:29;11.20;;;10.10;;
13204;SDS011;6667;52.634;9.226;2023-05-21T17:53:56;11.98;;;10.70;;
13204;SDS011;6667;52.634;9.226;2023-05-21T17:56:24;11.77;;;10.10;;
13204;SDS011;6667;52.634;9.226;2023-05-21T17:58:51;14.35;;;10.80;;
13204;SDS011;6667;52.634;9.226;2023-05-21T18:01:18;12.77;;;10.27;;
13204;SDS011;6667;52.634;9.226;2023-05-21T18:03:45;12.40;;;10.15;;
13204;SDS011;6667;52.634;9.226;2023-05-21T18:06:11;12.50;;;10.98;;
13204;SDS011;6667;52.634;9.226;2023-05-21T18:08:38;14.45;;;10.27;;
13204;SDS011;6667;52.634;9.226;2023-05-21T18:11:05;12.30;;;10.48;;
13204;SDS011;6667;52.634;9.226;2023-05-21T18:13:33;13.15;;;10.50;;
13204;SDS011;6667;52.634;9.226;2023-05-21T18:15:59;12.93;;;10.05;;
13204;SDS011;6667;52.634;9.226;2023-05-21T18:18:26;13.85;;;10.32;;
13204;SDS011;6667;52.634;9.226;2023-05-21T18:20:52;13.10;;;10.70;;
13204;SDS011;6667;52.634;9.226;2023-05-21T18:23:19;11.60;;;10.48;;
13204;SDS011;6667;52.634;9.226;2023-05-21T18:25:46;13.23;;;10.35;;
13204;SDS011;6667;52.634;9.226;2023-05-21T18:28:12;10.77;;;9.05;;
13204;SDS011;6667;52.634;9.226;2023-05-21T18:30:40;11.10;;;9.45;;
13204;SDS011;6667;52.634;9.226;2023-05-21T18:33:07;11.02;;;8.85;;
13204;SDS011;6667;52.634;9.226;2023-05-21T18:35:35;10.73;;;9.63;;
13204;SDS011;6667;52.634;9.226;2023-05-21T18:38:01;11.13;;;9.90;;
13204;SDS011;6667;52.634;9.226;2023-05-21T18:40:33;11.13;;;10.00;;
13204;SDS011;6667;52.634;9.226;2023-05-21T18:43:00;12.18;;;10.35;;
13204;SDS011;6667;52.634;9.226;2023-05-21T18:45:27;13.63;;;10.90;;
13204;SDS011;6667;52.634;9.226;2023-05-21T18:47:55;11.63;;;10.43;;
13204;SDS011;6667;52.634;9.226;2023-05-21T18:50:22;10.82;;;9.73;;
13204;SDS011;6667;52.634;9.226;2023-05-21T18:52:48;13.00;;;10.50;;
13204;SDS011;6667;52.634;9.226;2023-05-21T18:55:17;13.30;;;11.35;;
13204;SDS011;6667;52.634;9.226;2023-05-21T18:57:43;12.75;;;10.20;;
13204;SDS011;6667;52.634;9.226;2023-05-21T19:00:10;13.65;;;10.15;;
13204;SDS011;6667;52.634;9.226;2023-05-21T19:02:37;12.93;;;11.13;;
13204;SDS011;6667;52.634;9.226;2023-05-21T19:05:07;11.50;;;10.27;;
13204;SDS011;6667;52.634;9.226;2023-05-21T19:07:34;12.80;;;10.15;;
13204;SDS011;6667;52.634;9.226;2023-05-21T19:10:01;14.38;;;10.63;;
13204;SDS011;6667;52.634;9.226;2023-05-21T19:12:28;12.43;;;10.40;;
13204;SDS011;6667;52.634;9.226;2023-05-21T19:14:55;12.45;;;10.80;;
13204;SDS011;6667;52.634;9.226;2023-05-21T19:17:22;12.80;;;10.93;;
13204;SDS011;6667;52.634;9.226;2023-05-21T19:19:49;13.63;;;10.90;;
13204;SDS011;6667;52.634;9.226;2023-05-21T19:22:21;11.45;;;10.27;;
13204;SDS011;6667;52.634;9.226;2023-05-21T19:24:48;12.40;;;10.50;;
13204;SDS011;6667;52.634;9.226;2023-05-21T19:27:14;14.02;;;10.35;;
13204;SDS011;6667;52.634;9.226;2023-05-21T19:29:41;12.65;;;10.52;;
13204;SDS011;6667;52.634;9.226;2023-05-21T19:32:08;12.73;;;10.05;;
13204;SDS011;6667;52.634;9.226;2023-05-21T19:34:35;11.80;;;10.45;;
13204;SDS011;6667;52.634;9.226;2023-05-21T19:37:02;11.73;;;10.52;;
13204;SDS011;6667;52.634;9.226;2023-05-21T19:39:30;14.27;;;10.07;;
13204;SDS011;6667;52.634;9.226;2023-05-21T19:42:02;16.30;;;10.85;;
13204;SDS011;6667;52.634;9.226;2023-05-21T19:44:29;11.90;;;10.63;;
13204;SDS011;6667;52.634;9.226;2023-05-21T19:46:55;12.80;;;10.95;;
13204;SDS011;6667;52.634;9.226;2023-05-21T19:49:22;12.02;;;10.80;;
13204;SDS011;6667;52.634;9.226;2023-05-21T19:51:48;13.82;;;10.45;;
13204;SDS011;6667;52.634;9.226;2023-05-21T19:54:15;11.85;;;10.35;;
13204;SDS011;6667;52.634;9.226;2023-05-21T19:56:44;12.60;;;10.80;;
13204;SDS011;6667;52.634;9.226;2023-05-21T19:59:10;11.95;;;10.75;;
13204;SDS011;6667;52.634;9.226;2023-05-21T20:01:37;12.07;;;10.75;;
13204;SDS011;6667;52.634;9.226;2023-05-21T20:04:04;12.07;;;10.48;;
13204;SDS011;6667;52.634;9.226;2023-05-21T20:06:30;11.88;;;10.68;;
13204;SDS011;6667;52.634;9.226;2023-05-21T20:08:57;12.30;;;10.02;;
13204;SDS011;6667;52.634;9.226;2023-05-21T20:11:23;11.75;;;10.55;;
13204;SDS011;6667;52.634;9.226;2023-05-21T20:13:52;14.30;;;11.45;;
13204;SDS011;6667;52.634;9.226;2023-05-21T20:16:19;12.20;;;10.90;;
13204;SDS011;6667;52.634;9.226;2023-05-21T20:18:45;10.98;;;9.85;;
13204;SDS011;6667;52.634;9.226;2023-05-21T20:21:12;15.43;;;10.73;;
13204;SDS011;6667;52.634;9.226;2023-05-21T20:23:41;14.50;;;10.43;;
13204;SDS011;6667;52.634;9.226;2023-05-21T20:26:08;11.30;;;10.13;;
13204;SDS011;6667;52.634;9.226;2023-05-21T20:28:34;12.05;;;10.63;;
13204;SDS011;6667;52.634;9.226;2023-05-21T20:31:03;14.70;;;10.20;;
13204;SDS011;6667;52.634;9.226;2023-05-21T20:33:30;11.27;;;10.18;;
13204;SDS011;6667;52.634;9.226;2023-05-21T20:35:58;11.73;;;9.75;;
13204;SDS011;6667;52.634;9.226;2023-05-21T20:38:25;12.30;;;9.85;;
13204;SDS011;6667;52.634;9.226;2023-05-21T20:40:53;11.95;;;10.32;;
13204;SDS011;6667;52.634;9.226;2023-05-21T20:43:20;14.20;;;9.70;;
13204;SDS011;6667;52.634;9.226;2023-05-21T20:45:48;13.13;;;10.07;;
13204;SDS011;6667;52.634;9.226;2023-05-21T20:48:16;14.00;;;9.85;;
13204;SDS011;6667;52.634;9.226;2023-05-21T20:50:44;12.63;;;9.95;;
13204;SDS011;6667;52.634;9.226;2023-05-21T20:53:12;12.95;;;10.48;;
13204;SDS011;6667;52.634;9.226;2023-05-21T20:55:40;11.20;;;8.77;;
13204;SDS011;6667;52.634;9.226;2023-05-21T20:58:08;12.18;;;9.73;;
13204;SDS011;6667;52.634;9.226;2023-05-21T21:00:36;10.43;;;9.27;;
13204;SDS011;6667;52.634;9.226;2023-05-21T21:03:08;10.93;;;9.77;;
13204;SDS011;6667;52.634;9.226;2023-05-21T21:05:37;10.85;;;9.38;;
13204;SDS011;6667;52.634;9.226;2023-05-21T21:08:04;11.77;;;9.65;;
13204;SDS011;6667;52.634;9.226;2023-05-21T21:10:32;10.73;;;9.63;;
13204;SDS011;6667;52.634;9.226;2023-05-21T21:13:01;14.05;;;9.30;;
13204;SDS011;6667;52.634;9.226;2023-05-21T21:15:30;12.10;;;9.70;;
13204;SDS011;6667;52.634;9.226;2023-05-21T21:17:57;10.07;;;9.10;;
13204;SDS011;6667;52.634;9.226;2023-05-21T21:20:24;14.00;;;8.88;;
13204;SDS011;6667;52.634;9.226;2023-05-21T21:22:52;9.65;;;8.65;;
13204;SDS011;6667;52.634;9.226;2023-05-21T21:25:18;9.40;;;8.45;;
13204;SDS011;6667;52.634;9.226;2023-05-21T21:27:45;9.63;;;8.63;;
13204;SDS011;6667;52.634;9.226;2023-05-21T21:30:12;9.98;;;8.23;;
13204;SDS011;6667;52.634;9.226;2023-05-21T21:32:39;9.18;;;8.35;;
13204;SDS011;6667;52.634;9.226;2023-05-21T21:35:06;12.02;;;8.55;;
13204;SDS011;6667;52.634;9.226;2023-05-21T21:37:33;11.45;;;8.43;;
13204;SDS011;6667;52.634;9.226;2023-05-21T21:40:02;10.05;;;7.65;;
13204;SDS011;6667;52.634;9.226;2023-05-21T21:42:29;9.73;;;7.93;;
13204;SDS011;6667;52.634;9.226;2023-05-21T21:44:55;9.68;;;8.20;;
13204;SDS011;6667;52.634;9.226;2023-05-21T21:47:22;9.60;;;7.95;;
13204;SDS011;6667;52.634;9.226;2023-05-21T21:49:48;10.77;;;8.07;;
13204;SDS011;6667;52.634;9.226;2023-05-21T21:52:15;10.43;;;7.25;;
13204;SDS011;6667;52.634;9.226;2023-05-21T21:54:42;9.75;;;7.70;;
13204;SDS011;6667;52.634;9.226;2023-05-21T21:57:10;11.35;;;7.60;;
13204;SDS011;6667;52.634;9.226;2023-05-21T21:59:37;11.68;;;7.30;;
13204;SDS011;6667;52.634;9.226;2023-05-21T22:02:04;8.60;;;7.70;;
13204;SDS011;6667;52.634;9.226;2023-05-21T22:04:31;8.63;;;6.75;;
13204;SDS011;6667;52.634;9.226;2023-05-21T22:06:57;9.98;;;7.53;;
13204;SDS011;6667;52.634;9.226;2023-05-21T22:09:25;10.02;;;8.05;;
13204;SDS011;6667;52.634;9.226;2023-05-21T22:11:52;8.00;;;7.20;;
13204;SDS011;6667;52.634;9.226;2023-05-21T22:14:20;10.43;;;7.55;;
13204;SDS011;6667;52.634;9.226;2023-05-21T22:16:47;9.40;;;6.95;;
13204;SDS011;6667;52.634;9.226;2023-05-21T22:19:16;9.40;;;7.50;;
13204;SDS011;6667;52.634;9.226;2023-05-21T22:21:46;9.02;;;7.70;;
13204;SDS011;6667;52.634;9.226;2023-05-21T22:24:13;7.53;;;6.32;;
13204;SDS011;6667;52.634;9.226;2023-05-21T22:26:40;9.98;;;7.30;;
13204;SDS011;6667;52.634;9.226;2023-05-21T22:29:06;8.48;;;7.47;;
13204;SDS011;6667;52.634;9.226;2023-05-21T22:31:34;10.13;;;7.30;;
13204;SDS011;6667;52.634;9.226;2023-05-21T22:34:01;8.43;;;6.93;;
13204;SDS011;6667;52.634;9.226;2023-05-21T22:36:27;8.68;;;7.05;;
